Time;durP1;ratioP1;P1;durP2;ratioP2;P2;SDS_P1;SDS_P2;PMS_P1;PMS_P2;Temp;Humidity;BMP_temperature;BMP_pressure;BME280_temperature;BME280_humidity;BME280_pressure;Samples;Min_cycle;Max_cycle;Signal;HPM_P1;HPM_P2
2022/12/13 00:00:13;;;;;;;1.38;1.27;;;;;;;18.20;59.33;97910.34;2094209;28;20405;-75
2022/12/13 00:01:16;;;;;;;1.05;0.95;;;;;;;18.20;59.09;97915.72;2094896;28;20464;-74
2022/12/13 00:02:18;;;;;;;2.25;1.10;;;;;;;18.23;59.28;97917.16;2091490;28;20426;-75
2022/12/13 00:03:19;;;;;;;1.80;1.10;;;;;;;18.23;59.04;97919.84;2094642;28;20097;-74
2022/12/13 00:04:22;;;;;;;;;;;;;;;18.12;59.16;97913.31;2096218;28;20098;-74
2022/12/13 00:05:22;;;;;;;1.42;1.17;;;;;;;18.15;59.22;97912.88;2093580;28;20504;-75
2022/12/13 00:06:24;;;;;;;;;;;;;;;18.05;59.59;97915.19;2094611;28;20055;-75
2022/12/13 00:07:25;;;;;;;1.70;1.38;;;;;;;18.11;59.45;97914.34;2097203;28;19924;-74
2022/12/13 00:08:26;;;;;;;;;;;;;;;18.00;59.60;97913.19;2098503;28;20051;-75
2022/12/13 00:09:27;;;;;;;1.02;0.95;;;;;;;18.05;59.68;97910.69;2097976;28;19932;-74
2022/12/13 00:10:30;;;;;;;;;;;;;;;18.01;59.52;97911.31;2096560;28;20063;-75
2022/12/13 00:11:32;;;;;;;1.10;0.93;;;;;;;18.07;59.42;97910.44;2098503;28;19924;-75
2022/12/13 00:12:33;;;;;;;1.52;1.30;;;;;;;18.11;59.25;97911.69;2088806;28;20052;-74
2022/12/13 00:13:35;;;;;;;;;;;;;;;18.01;59.32;97912.13;2095569;28;20054;-74
2022/12/13 00:14:37;;;;;;;1.77;1.00;;;;;;;18.04;59.36;97905.53;2095935;28;19924;-74
2022/12/13 00:15:37;;;;;;;1.20;0.93;;;;;;;18.07;59.45;97907.75;2096373;28;20052;-75
2022/12/13 00:16:39;;;;;;;;;;;;;;;17.98;59.56;97909.91;2098927;28;20048;-74
2022/12/13 00:17:40;;;;;;;;;;;;;;;17.91;59.50;97905.59;2097095;28;19932;-74
2022/12/13 00:18:42;;;;;;;1.40;0.93;;;;;;;17.96;59.51;97905.78;2091597;28;19920;-75
2022/12/13 00:19:43;;;;;;;1.35;1.15;;;;;;;18.00;59.45;97898.97;2091495;28;20040;-74
2022/12/13 00:20:44;;;;;;;0.90;0.85;;;;;;;18.05;59.23;97899.94;2092711;28;20102;-74
2022/12/13 00:21:46;;;;;;;;;;;;;;;17.92;59.71;97897.34;2097189;28;20547;-74
2022/12/13 00:22:46;;;;;;;;;;;;;;;17.86;59.92;97892.88;2096529;28;19943;-74
2022/12/13 00:23:48;;;;;;;1.80;1.50;;;;;;;17.93;59.77;97893.63;2091889;28;19928;-74
2022/12/13 00:24:49;;;;;;;2.00;1.13;;;;;;;17.97;59.38;97889.47;2094097;28;20052;-72
2022/12/13 00:25:52;;;;;;;;;;;;;;;17.87;59.59;97883.75;2097436;28;20135;-74
2022/12/13 00:26:54;;;;;;;2.53;1.13;;;;;;;17.92;59.47;97881.25;2095354;28;19935;-72
2022/12/13 00:27:56;;;;;;;2.28;1.25;;;;;;;17.97;59.55;97877.91;2092427;28;20562;-74
2022/12/13 00:28:59;;;;;;;3.05;1.30;;;;;;;18.00;59.31;97877.50;2095839;28;20040;-73
2022/12/13 00:30:01;;;;;;;2.03;1.20;;;;;;;17.99;59.29;97884.69;2093935;28;20115;-73
2022/12/13 00:31:02;;;;;;;1.20;0.90;;;;;;;17.99;59.31;97887.38;2087867;28;20157;-74
2022/12/13 00:32:04;;;;;;;2.10;1.10;;;;;;;18.00;59.34;97886.34;2091425;28;20049;-75
2022/12/13 00:33:05;;;;;;;1.15;1.05;;;;;;;17.97;59.23;97886.78;2096873;28;20055;-74
2022/12/13 00:34:06;;;;;;;;;;;;;;;17.86;59.59;97885.63;2094614;28;20139;-75
2022/12/13 00:35:08;;;;;;;1.20;1.05;;;;;;;17.90;59.32;97880.66;2093132;28;19920;-74
2022/12/13 00:36:10;;;;;;;1.35;1.10;;;;;;;17.95;59.33;97883.50;2092473;28;20102;-74
2022/12/13 00:37:12;;;;;;;1.02;0.82;;;;;;;17.95;59.10;97885.38;2095639;28;20045;-74
2022/12/13 00:38:13;;;;;;;1.90;0.95;;;;;;;17.94;59.20;97881.03;2091994;28;20433;-74
2022/12/13 00:39:15;;;;;;;;;;;;;;;17.84;59.33;97893.06;2095507;28;20036;-73
2022/12/13 00:40:17;;;;;;;1.65;1.02;;;;;;;17.87;59.32;97889.13;2091345;28;20326;-74
2022/12/13 00:41:19;;;;;;;1.77;1.23;;;;;;;17.90;59.21;97895.91;2090886;28;20060;-75
2022/12/13 00:42:21;;;;;;;1.13;0.93;;;;;;;17.90;59.41;97893.25;2096038;28;20044;-74
2022/12/13 00:43:22;;;;;;;1.38;1.13;;;;;;;17.89;59.31;97895.09;2093726;28;20052;-74
2022/12/13 00:44:23;;;;;;;;;;;;;;;17.76;59.53;97881.75;2094997;28;20155;-74
2022/12/13 00:45:32;;;;;;;1.48;0.95;;;;;;;17.80;59.59;97882.97;2095614;28;19924;-74
2022/12/13 00:46:33;;;;;;;2.15;1.55;;;;;;;17.83;59.33;97880.69;2095088;28;20048;-74
2022/12/13 00:47:35;;;;;;;;;;;;;;;17.72;59.49;97881.38;2092453;28;20095;-74
2022/12/13 00:48:36;;;;;;;0.80;0.80;;;;;;;17.76;59.51;97885.25;2091369;28;20417;-74
2022/12/13 00:49:37;;;;;;;;;;;;;;;17.65;59.66;97886.75;2091313;28;20058;-74
2022/12/13 00:50:38;;;;;;;;;;;;;;;17.58;60.04;97877.13;2091100;28;19935;-74
2022/12/13 00:51:40;;;;;;;1.77;1.25;;;;;;;17.65;59.90;97869.84;2095496;28;19927;-74
2022/12/13 00:52:41;;;;;;;0.93;0.80;;;;;;;17.71;59.79;97874.34;2092826;28;20060;-75
2022/12/13 00:53:43;;;;;;;;;;;;;;;17.62;59.90;97879.13;2093081;28;20044;-74
2022/12/13 00:54:45;;;;;;;1.00;0.90;;;;;;;17.68;59.82;97882.00;2092557;28;19927;-74
2022/12/13 00:55:46;;;;;;;2.15;1.08;;;;;;;17.71;59.59;97879.69;2095604;28;20040;-74
2022/12/13 00:56:50;;;;;;;;;;;;;;;17.62;59.85;97881.00;2092548;28;20078;-75
2022/12/13 00:57:51;;;;;;;1.45;1.10;;;;;;;17.63;59.84;97882.63;2094556;28;19939;-74
2022/12/13 00:58:53;;;;;;;;;;;;;;;17.53;60.01;97879.63;2091252;28;20516;-74
2022/12/13 00:59:55;;;;;;;1.88;1.17;;;;;;;17.60;59.85;97883.06;2092824;28;20005;-74
2022/12/13 01:01:02;;;;;;;2.72;1.13;;;;;;;17.62;59.50;97887.19;2096377;28;20036;-74
2022/12/13 01:02:04;;;;;;;1.50;1.10;;;;;;;17.67;59.66;97885.72;2092758;28;20640;-75
2022/12/13 01:03:19;;;;;;;1.05;1.05;;;;;;;17.67;59.52;97877.69;2088683;28;20066;-75
2022/12/13 01:04:24;;;;;;;1.45;1.35;;;;;;;17.65;59.66;97880.56;2091663;28;20764;-75
2022/12/13 01:05:24;;;;;;;1.17;1.08;;;;;;;17.63;59.75;97871.91;2090817;28;20053;-74
2022/12/13 01:06:35;;;;;;;;;;;;;;;17.50;59.82;97880.88;2090667;28;20052;-74
2022/12/13 01:07:36;;;;;;;1.85;1.33;;;;;;;17.53;59.95;97874.25;2090433;28;19928;-74
2022/12/13 01:08:38;;;;;;;1.25;1.20;;;;;;;17.55;59.80;97875.69;2089466;28;20055;-73
2022/12/13 01:09:41;;;;;;;0.75;0.75;;;;;;;17.59;59.70;97871.53;2091881;28;20059;-73
2022/12/13 01:10:43;;;;;;;1.13;1.00;;;;;;;17.60;59.54;97873.16;2088991;28;20503;-73
2022/12/13 01:11:46;;;;;;;2.85;1.20;;;;;;;17.60;59.52;97867.78;2090834;28;20063;-73
2022/12/13 01:12:48;;;;;;;1.55;0.98;;;;;;;17.59;59.46;97866.16;2086077;28;20150;-73
2022/12/13 01:13:50;;;;;;;1.40;0.95;;;;;;;17.58;59.50;97864.53;2083977;28;20052;-73
2022/12/13 01:14:52;;;;;;;0.73;0.70;;;;;;;17.56;59.57;97855.06;2091282;28;20078;-73
2022/12/13 01:15:52;;;;;;;1.15;1.00;;;;;;;17.54;59.75;97857.13;2086070;28;20052;-73
2022/12/13 01:16:55;;;;;;;;;;;;;;;17.42;59.79;97859.66;2092119;28;20052;-74
2022/12/13 01:17:56;;;;;;;1.20;0.98;;;;;;;17.46;59.85;97854.69;2082308;28;20774;-73
2022/12/13 01:18:57;;;;;;;;;;;;;;;17.35;59.97;97853.50;2090790;28;20143;-74
2022/12/13 01:19:58;;;;;;;;;;;;;;;17.29;60.30;97849.00;2088426;28;19957;-73
2022/12/13 01:21:02;;;;;;;1.15;1.05;;;;;;;17.36;60.08;97849.81;2087964;28;19950;-73
2022/12/13 01:22:06;;;;;;;1.02;0.93;;;;;;;17.41;59.86;97849.97;2085411;28;20378;-74
2022/12/13 01:23:06;;;;;;;0.80;0.80;;;;;;;17.43;59.74;97838.00;2085148;28;20043;-74
2022/12/13 01:24:10;;;;;;;;;;;;;;;17.32;60.17;97840.53;2088414;28;20048;-74
2022/12/13 01:25:11;;;;;;;2.70;1.05;;;;;;;17.38;60.07;97843.19;2092600;28;19928;-74
2022/12/13 01:26:14;;;;;;;;;;;;;;;17.26;60.30;97839.53;2085907;28;20117;-72
2022/12/13 01:27:14;;;;;;;4.40;1.02;;;;;;;17.33;60.09;97842.19;2084011;28;19931;-74
2022/12/13 01:28:17;;;;;;;;;;;;;;;17.26;60.08;97833.38;2087302;28;20048;-73
2022/12/13 01:29:20;;;;;;;1.25;1.13;;;;;;;17.32;60.01;97827.13;2091586;28;20247;-74
2022/12/13 01:30:21;;;;;;;1.65;1.02;;;;;;;17.35;60.03;97824.84;2089859;28;20141;-74
2022/12/13 01:31:22;;;;;;;;;;;;;;;17.24;60.27;97827.38;2091765;28;20343;-73
2022/12/13 01:32:23;;;;;;;1.17;0.90;;;;;;;17.25;60.21;97826.38;2090304;28;20007;-73
2022/12/13 01:33:25;;;;;;;;;;;;;;;17.16;60.44;97826.63;2084229;28;20056;-74
2022/12/13 01:34:26;;;;;;;1.10;0.90;;;;;;;17.23;60.33;97831.13;2087151;28;20393;-74
2022/12/13 01:35:28;;;;;;;;;;;;;;;17.13;60.37;97827.03;2089140;28;20059;-73
2022/12/13 01:36:28;;;;;;;;;;;;;;;17.08;60.67;97826.84;2091175;28;19927;-74
2022/12/13 01:37:30;;;;;;;1.27;0.80;;;;;;;17.12;60.58;97822.69;2090956;28;19930;-74
2022/12/13 01:38:31;;;;;;;0.90;0.80;;;;;;;17.22;60.22;97822.25;2089083;28;20040;-73
2022/12/13 01:39:33;;;;;;;1.70;1.60;;;;;;;17.26;60.15;97817.28;2089728;28;20040;-73
2022/12/13 01:40:34;;;;;;;0.85;0.85;;;;;;;17.26;59.96;97807.38;2087874;28;20040;-74
2022/12/13 01:41:35;;;;;;;;;;;;;;;17.15;60.28;97816.09;2090857;28;20054;-74
2022/12/13 01:42:37;;;;;;;1.75;1.00;;;;;;;17.19;60.29;97815.47;2087479;28;19935;-73
2022/12/13 01:43:55;;;;;;;1.23;1.00;;;;;;;17.19;60.24;97820.00;2082152;28;21154;-73
2022/12/13 01:45:00;;;;;;;0.80;0.80;;;;;;;17.22;60.07;97821.41;2089604;28;20709;-74
2022/12/13 01:46:04;;;;;;;2.03;0.93;;;;;;;17.22;60.01;97822.25;2086063;28;20048;-73
2022/12/13 01:47:05;;;;;;;1.33;1.00;;;;;;;17.20;59.96;97819.78;2085006;28;20515;-73
2022/12/13 01:48:10;;;;;;;;;;;;;;;17.08;60.45;97826.84;2089062;28;20040;-73
2022/12/13 01:49:15;;;;;;;2.80;0.90;;;;;;;17.12;60.25;97825.38;2090674;28;20545;-73
2022/12/13 01:50:21;;;;;;;1.15;1.05;;;;;;;17.16;60.12;97813.22;2092379;28;20048;-74
2022/12/13 01:51:29;;;;;;;1.17;1.08;;;;;;;17.18;59.96;97808.44;2093766;28;20052;-74
2022/12/13 01:52:32;;;;;;;1.55;1.33;;;;;;;17.16;60.01;97799.81;2091111;28;20085;-74
2022/12/13 01:53:40;;;;;;;2.05;1.05;;;;;;;17.16;60.24;97802.50;2090431;28;20057;-73
2022/12/13 01:54:45;;;;;;;0.98;0.80;;;;;;;17.16;60.00;97799.81;2094005;28;20060;-73
2022/12/13 01:55:51;;;;;;;1.13;0.90;;;;;;;17.13;60.03;97808.28;2098605;28;20050;-73
2022/12/13 01:56:54;;;;;;;2.60;0.80;;;;;;;17.11;59.74;97810.34;2091658;28;20053;-72
2022/12/13 01:57:59;;;;;;;1.42;1.33;;;;;;;17.12;60.08;97801.28;2093165;28;20040;-73
2022/12/13 01:59:16;;;;;;;1.08;0.98;;;;;;;17.08;60.19;97799.25;2087113;28;20048;-73
2022/12/13 02:00:18;;;;;;;1.13;1.02;;;;;;;17.09;60.12;97795.53;2086676;28;20075;-72
2022/12/13 02:01:21;;;;;;;1.05;0.95;;;;;;;17.11;59.88;97799.63;2090131;28;20135;-73
2022/12/13 02:02:22;;;;;;;1.70;1.33;;;;;;;17.12;59.97;97808.50;2086977;28;20052;-73
2022/12/13 02:03:23;;;;;;;;;;;;;;;16.98;60.29;97811.22;2091092;28;20048;-74
2022/12/13 02:04:30;;;;;;;1.85;1.05;;;;;;;17.03;60.19;97804.41;2089556;28;20609;-74
2022/12/13 02:05:35;;;;;;;1.30;0.98;;;;;;;17.05;60.21;97805.84;2088948;28;20060;-73
2022/12/13 02:06:40;;;;;;;1.25;1.00;;;;;;;17.04;60.21;97806.88;2091642;28;20056;-74
2022/12/13 02:07:44;;;;;;;4.00;1.02;;;;;;;17.05;60.24;97802.31;2090795;28;20182;-73
2022/12/13 02:08:45;;;;;;;0.70;0.65;;;;;;;17.05;60.22;97789.78;2087759;28;20410;-74
2022/12/13 02:09:49;;;;;;;1.55;1.42;;;;;;;17.06;60.16;97782.56;2089281;28;20060;-74
2022/12/13 02:10:51;;;;;;;1.52;1.10;;;;;;;17.05;60.10;97779.06;2088872;28;20041;-74
2022/12/13 02:11:52;;;;;;;1.20;1.10;;;;;;;17.01;60.13;97769.78;2083688;28;20053;-73
2022/12/13 02:12:54;;;;;;;2.28;0.73;;;;;;;17.02;60.11;97768.78;2089177;28;20049;-74
2022/12/13 02:13:55;;;;;;;1.38;1.00;;;;;;;17.00;60.22;97776.19;2088033;28;20375;-73
2022/12/13 02:14:59;;;;;;;;;;;;;;;16.85;60.58;97776.44;2084067;28;20055;-73
2022/12/13 02:16:09;;;;;;;0.95;0.95;;;;;;;16.92;60.30;97779.94;2089547;28;19935;-72
2022/12/13 02:17:21;;;;;;;0.98;0.88;;;;;;;16.91;60.32;97786.34;2082266;28;20056;-74
2022/12/13 02:18:46;;;;;;;1.45;1.20;;;;;;;16.88;60.38;97791.28;2090947;28;20076;-73
2022/12/13 02:20:17;;;;;;;1.20;1.05;;;;;;;16.87;60.49;97792.31;2088818;28;20049;-73
2022/12/13 02:21:28;;;;;;;1.13;1.02;;;;;;;16.85;60.60;97786.34;2059403;28;20532;-74
2022/12/13 02:22:40;;;;;;;;;;;;;;;16.71;60.89;97783.69;2088015;28;20124;-73
2022/12/13 02:24:23;;;;;;;1.10;1.00;;;;;;;16.78;60.68;97764.16;2088262;28;19927;-73
2022/12/13 02:25:50;;;;;;;1.38;0.88;;;;;;;16.77;60.69;97749.94;2083482;28;20052;-73
2022/12/13 02:27:08;;;;;;;1.52;1.20;;;;;;;16.79;60.65;97747.03;2083043;28;20056;-73
2022/12/13 02:28:24;;;;;;;0.98;0.90;;;;;;;16.81;60.58;97742.28;2086933;28;20049;-73
2022/12/13 02:29:58;;;;;;;1.48;1.38;;;;;;;16.77;60.70;97741.06;2089244;28;20556;-73
2022/12/13 02:31:09;;;;;;;2.47;1.00;;;;;;;16.75;60.63;97735.91;2087945;28;20402;-72
2022/12/13 02:32:19;;;;;;;1.20;0.90;;;;;;;16.77;60.74;97738.38;2089392;28;20799;-74
2022/12/13 02:33:41;;;;;;;1.42;1.20;;;;;;;16.74;60.49;97739.59;2092694;28;20072;-73
2022/12/13 02:34:50;;;;;;;1.20;1.10;;;;;;;16.77;60.46;97752.63;2079520;28;20064;-74
2022/12/13 02:36:01;;;;;;;1.05;0.95;;;;;;;16.78;60.47;97758.78;2089050;28;20048;-73
2022/12/13 02:37:07;;;;;;;2.05;1.23;;;;;;;16.77;60.51;97766.00;2086486;28;20040;-73
2022/12/13 02:38:13;;;;;;;1.50;1.08;;;;;;;16.77;60.48;97771.38;2088014;28;20048;-73
2022/12/13 02:39:30;;;;;;;1.05;0.80;;;;;;;16.77;60.50;97776.72;2089237;28;20044;-73
2022/12/13 02:40:37;;;;;;;1.35;1.10;;;;;;;16.73;60.48;97772.78;2084445;28;20049;-73
2022/12/13 02:41:43;;;;;;;1.17;1.08;;;;;;;16.75;60.50;97776.91;2091867;28;20666;-75
2022/12/13 02:42:52;;;;;;;1.38;0.82;;;;;;;16.78;60.36;97788.25;2089644;28;20052;-74
2022/12/13 02:43:57;;;;;;;1.27;1.17;;;;;;;16.75;60.31;97784.94;2088686;28;20056;-73
2022/12/13 02:45:05;;;;;;;2.35;1.30;;;;;;;16.73;60.37;97786.97;2085679;28;20044;-73
2022/12/13 02:46:11;;;;;;;0.95;0.75;;;;;;;16.73;60.42;97786.16;2087890;28;20880;-72
2022/12/13 02:47:14;;;;;;;1.85;1.15;;;;;;;16.70;60.48;97784.72;2088313;28;20093;-73
2022/12/13 02:48:20;;;;;;;1.95;1.40;;;;;;;16.69;60.55;97777.75;2086088;28;20048;-73
2022/12/13 02:49:22;;;;;;;1.98;1.40;;;;;;;16.70;60.41;97768.66;2087718;28;20048;-73
2022/12/13 02:50:26;;;;;;;1.38;1.20;;;;;;;16.70;60.42;97767.84;2085881;28;20045;-73
2022/12/13 02:51:28;;;;;;;1.15;0.90;;;;;;;16.68;60.47;97762.69;2083140;28;20797;-73
2022/12/13 02:52:32;;;;;;;1.77;1.23;;;;;;;16.67;60.47;97761.06;2087878;28;20049;-74
2022/12/13 02:53:35;;;;;;;1.70;1.13;;;;;;;16.66;60.59;97762.09;2087874;28;20662;-75
2022/12/13 02:54:37;;;;;;;1.65;1.05;;;;;;;16.67;60.59;97755.72;2090357;28;20087;-73
2022/12/13 02:55:39;;;;;;;1.30;1.23;;;;;;;16.64;60.57;97748.09;2089672;28;20060;-73
2022/12/13 02:56:41;;;;;;;1.20;1.10;;;;;;;16.65;60.56;97743.56;2094101;28;20108;-74
2022/12/13 02:57:44;;;;;;;0.90;0.90;;;;;;;16.67;60.45;97741.50;2092294;28;20056;-74
2022/12/13 02:58:51;;;;;;;1.33;0.95;;;;;;;16.67;60.39;97738.81;2095612;28;20203;-72
2022/12/13 02:59:52;;;;;;;3.92;1.00;;;;;;;16.65;60.20;97731.00;2088565;28;20052;-73
2022/12/13 03:00:57;;;;;;;;;;;;;;;16.51;60.77;97730.22;2087216;28;21215;-73
2022/12/13 03:02:09;;;;;;;0.85;0.70;;;;;;;16.54;60.73;97734.34;2086511;28;19946;-74
2022/12/13 03:03:22;;;;;;;1.08;0.98;;;;;;;16.54;60.77;97734.34;2087530;28;20053;-74
2022/12/13 03:04:36;;;;;;;1.20;1.02;;;;;;;16.57;60.43;97733.91;2090553;28;20235;-73
2022/12/13 03:07:17;;;;;;;2.17;1.30;;;;;;;16.52;60.78;97739.09;2090822;28;20040;-73
2022/12/13 03:08:23;;;;;;;1.02;0.93;;;;;;;16.52;60.77;97739.91;2090189;28;20171;-74
2022/12/13 03:09:42;;;;;;;1.25;0.90;;;;;;;16.51;60.71;97753.50;2087009;28;20060;-73
2022/12/13 03:10:52;;;;;;;0.98;0.88;;;;;;;16.51;60.76;97750.81;2089142;28;20066;-72
2022/12/13 03:13:57;;;;;;;2.78;1.05;;;;;;;16.48;60.88;97743.22;2091304;28;20725;-72
2022/12/13 03:15:14;;;;;;;1.17;0.82;;;;;;;16.45;60.93;97730.25;2083647;28;20045;-74
2022/12/13 03:16:32;;;;;;;1.25;0.88;;;;;;;16.44;61.00;97744.69;2089383;28;20049;-73
2022/12/13 03:17:40;;;;;;;1.05;0.90;;;;;;;16.46;60.83;97742.59;2090370;28;20135;-76
2022/12/13 03:18:43;;;;;;;1.35;1.10;;;;;;;16.44;61.01;97742.00;2084147;28;20097;-72
2022/12/13 03:19:44;;;;;;;1.73;1.30;;;;;;;16.47;60.81;97755.78;2086969;28;20124;-74
2022/12/13 03:20:47;;;;;;;;;;;;;;;16.38;60.89;97742.81;2090411;28;20056;-72
2022/12/13 03:21:49;;;;;;;1.95;1.20;;;;;;;16.40;60.88;97743.44;2087181;28;20399;-73
2022/12/13 03:22:51;;;;;;;1.05;0.90;;;;;;;16.42;60.72;97742.22;2089596;28;20060;-72
2022/12/13 03:23:53;;;;;;;1.27;1.08;;;;;;;16.46;60.78;97742.59;2092190;28;20598;-72
2022/12/13 03:24:54;;;;;;;1.15;0.85;;;;;;;16.46;60.66;97730.03;2095543;28;20442;-73
2022/12/13 03:25:57;;;;;;;;;;;;;;;16.32;61.08;97744.50;2089747;28;20406;-73
2022/12/13 03:26:58;;;;;;;1.20;0.80;;;;;;;16.36;61.20;97736.88;2087528;28;19928;-73
2022/12/13 03:27:59;;;;;;;;;;;;;;;16.25;61.31;97731.16;2093154;28;20424;-74
2022/12/13 03:29:00;;;;;;;1.27;1.00;;;;;;;16.31;61.11;97726.81;2088985;28;20467;-72
2022/12/13 03:30:02;;;;;;;;;;;;;;;16.26;61.20;97718.59;2085676;28;20044;-73
2022/12/13 03:31:03;;;;;;;1.17;1.10;;;;;;;16.30;60.99;97715.28;2086639;28;19928;-72
2022/12/13 03:32:05;;;;;;;1.00;0.90;;;;;;;16.36;60.92;97699.44;2088746;28;20044;-73
2022/12/13 03:33:07;;;;;;;1.35;0.98;;;;;;;16.39;60.79;97702.50;2088690;28;20047;-73
2022/12/13 03:34:12;;;;;;;1.67;1.20;;;;;;;16.39;60.71;97693.66;2089585;28;20797;-72
2022/12/13 03:35:13;;;;;;;0.80;0.80;;;;;;;16.41;60.77;97700.44;2089093;28;20079;-74
2022/12/13 03:36:16;;;;;;;;;;;;;;;16.28;61.08;97700.47;2089297;28;20043;-74
2022/12/13 03:37:17;;;;;;;1.30;1.13;;;;;;;16.27;61.07;97706.88;2088229;28;20601;-74
2022/12/13 03:38:19;;;;;;;;;;;;;;;16.20;61.19;97706.06;2087418;28;20050;-73
2022/12/13 03:39:20;;;;;;;1.48;1.00;;;;;;;16.26;61.07;97713.22;2088168;28;19931;-74
2022/12/13 03:40:22;;;;;;;2.15;1.25;;;;;;;16.30;60.97;97712.63;2091973;28;20047;-73
2022/12/13 03:41:30;;;;;;;1.45;1.20;;;;;;;16.36;60.74;97700.25;2091455;28;20045;-74
2022/12/13 03:42:31;;;;;;;0.98;0.85;;;;;;;16.42;60.53;97699.38;2094890;28;20159;-73
2022/12/13 03:43:32;;;;;;;;;;;;;;;16.36;60.79;97694.88;2093526;28;20048;-74
2022/12/13 03:44:34;;;;;;;1.17;1.08;;;;;;;16.42;60.52;97691.34;2091576;28;19920;-73
2022/12/13 03:45:35;;;;;;;1.02;0.93;;;;;;;16.53;60.28;97696.03;2090217;28;20052;-73
2022/12/13 03:46:36;;;;;;;;;;;;;;;16.50;60.30;97695.66;2081624;28;21241;-73
2022/12/13 03:47:37;;;;;;;;;;;;;;;16.47;60.43;97691.53;2092909;28;20405;-74
2022/12/13 03:48:40;;;;;;;1.00;0.87;;;;;;;16.53;60.26;97696.03;2094214;28;19935;-73
2022/12/13 03:49:41;;;;;;;2.67;0.90;;;;;;;16.61;59.99;97688.81;2089666;28;21134;-73
2022/12/13 03:50:42;;;;;;;;;;;;;;;16.57;60.28;97688.41;2088134;28;20049;-73
2022/12/13 03:51:43;;;;;;;1.58;1.15;;;;;;;16.60;60.08;97687.97;2086119;28;19924;-74
2022/12/13 03:52:46;;;;;;;;;;;;;;;16.55;60.23;97682.47;2087994;28;20044;-73
2022/12/13 03:53:47;;;;;;;1.45;1.35;;;;;;;16.61;60.00;97692.31;2094957;28;20906;-74
2022/12/13 03:54:48;;;;;;;;;;;;;;;16.57;60.17;97699.09;2084531;28;20055;-73
2022/12/13 03:55:49;;;;;;;0.90;0.90;;;;;;;16.64;60.16;97699.09;2092329;28;19935;-73
2022/12/13 03:56:51;;;;;;;;;;;;;;;16.61;60.21;97711.06;2092936;28;20132;-73
2022/12/13 03:57:51;;;;;;;0.90;0.90;;;;;;;16.65;60.11;97708.75;2094280;28;19977;-74
2022/12/13 03:58:53;;;;;;;;;;;;;;;16.60;60.33;97700.53;2093780;28;20643;-74
2022/12/13 03:59:54;;;;;;;0.77;0.77;;;;;;;16.65;60.14;97700.72;2090498;28;19924;-74
2022/12/13 04:00:55;;;;;;;;;;;;;;;16.60;60.06;97696.00;2085922;28;20094;-73
2022/12/13 04:01:56;;;;;;;1.60;1.00;;;;;;;16.65;60.07;97698.06;2092725;28;19928;-73
2022/12/13 04:02:58;;;;;;;;;;;;;;;16.62;60.21;97695.81;2088930;28;20052;-74
2022/12/13 04:04:01;;;;;;;1.17;0.80;;;;;;;16.65;60.14;97695.38;2089400;28;19943;-73
2022/12/13 04:05:01;;;;;;;1.27;1.05;;;;;;;16.70;59.93;97695.56;2082303;28;20052;-73
2022/12/13 04:06:03;;;;;;;;;;;;;;;16.64;60.02;97699.91;2089595;28;20157;-72
2022/12/13 04:07:04;;;;;;;1.65;1.50;;;;;;;16.65;60.02;97698.88;2093720;28;20463;-73
2022/12/13 04:08:06;;;;;;;;;;;;;;;16.62;60.07;97699.28;2092837;28;20041;-74
2022/12/13 04:09:07;;;;;;;1.30;1.20;;;;;;;16.69;59.89;97702.78;2087370;28;19924;-73
2022/12/13 04:10:09;;;;;;;;;;;;;;;16.63;60.01;97695.59;2087960;28;20049;-74
2022/12/13 04:13:50;;;;;;;1.33;1.23;;;;;;;16.72;59.85;97715.72;2090340;28;20049;-73
2022/12/13 04:14:50;;;;;;;0.90;0.90;;;;;;;16.71;59.84;97722.09;2077755;28;20114;-73
2022/12/13 04:15:52;;;;;;;;;;;;;;;16.66;60.04;97729.97;2086333;28;20098;-73
2022/12/13 04:16:53;;;;;;;0.90;0.90;;;;;;;16.67;60.01;97731.59;2088555;28;19935;-73
2022/12/13 04:17:54;;;;;;;;;;;;;;;16.62;60.10;97730.59;2086016;28;20086;-73
2022/12/13 04:18:55;;;;;;;0.82;0.77;;;;;;;16.65;60.02;97725.63;2087710;28;20230;-73
2022/12/13 04:19:58;;;;;;;;;;;;;;;16.61;60.11;97727.13;2090148;28;20665;-74
2022/12/13 04:20:59;;;;;;;0.82;0.75;;;;;;;16.66;60.13;97732.66;2085614;28;19928;-74
2022/12/13 04:22:00;;;;;;;;;;;;;;;16.60;60.21;97738.03;2089070;28;22085;-73
2022/12/13 04:23:01;;;;;;;1.42;0.95;;;;;;;16.67;59.92;97728.13;2087998;28;19928;-73
2022/12/13 04:24:03;;;;;;;;;;;;;;;16.60;60.13;97730.81;2093196;28;20401;-73
2022/12/13 04:25:04;;;;;;;1.20;1.10;;;;;;;16.65;60.00;97727.50;2087794;28;19924;-73
2022/12/13 04:26:06;;;;;;;1.20;1.10;;;;;;;16.69;59.79;97737.59;2091711;28;20044;-74
2022/12/13 04:27:07;;;;;;;0.75;0.68;;;;;;;16.73;59.74;97735.28;2090876;28;20055;-72
2022/12/13 04:28:09;;;;;;;;;;;;;;;16.64;60.03;97739.25;2082828;28;20194;-72
2022/12/13 04:29:09;;;;;;;0.80;0.80;;;;;;;16.66;60.08;97735.34;2085599;28;19995;-73
2022/12/13 04:30:12;;;;;;;;;;;;;;;16.60;60.07;97730.81;2084215;28;20703;-74
2022/12/13 04:31:12;;;;;;;0.88;0.73;;;;;;;16.61;60.02;97735.16;2088121;28;20742;-73
2022/12/13 04:32:14;;;;;;;;;;;;;;;16.57;60.25;97733.91;2087021;28;20078;-73
2022/12/13 04:33:15;;;;;;;1.85;1.17;;;;;;;16.61;60.19;97729.78;2087597;28;19928;-73
2022/12/13 04:34:16;;;;;;;;;;;;;;;16.57;60.20;97733.09;2088520;28;20044;-73
2022/12/13 04:35:18;;;;;;;0.77;0.70;;;;;;;16.61;60.12;97734.34;2082290;28;19928;-74
2022/12/13 04:36:20;;;;;;;1.27;0.98;;;;;;;16.63;60.12;97727.72;2086589;28;21922;-74
2022/12/13 04:37:21;;;;;;;1.13;0.98;;;;;;;16.69;59.79;97732.22;2086711;28;20545;-73
2022/12/13 04:38:23;;;;;;;;;;;;;;;16.59;60.11;97726.50;2094593;28;20050;-73
2022/12/13 04:39:24;;;;;;;1.23;1.10;;;;;;;16.63;59.96;97733.09;2086369;28;19925;-74
2022/12/13 04:40:25;;;;;;;1.35;0.85;;;;;;;16.63;60.01;97733.09;2089267;28;20047;-74
2022/12/13 04:41:27;;;;;;;;;;;;;;;16.56;60.09;97737.63;2094750;28;20071;-74
2022/12/13 04:42:28;;;;;;;0.98;0.77;;;;;;;16.58;60.17;97740.13;2083428;28;20470;-73
2022/12/13 04:43:29;;;;;;;;;;;;;;;16.53;60.23;97741.56;2091326;28;20044;-73
2022/12/13 04:44:30;;;;;;;2.00;0.95;;;;;;;16.57;60.11;97739.25;2087990;28;19927;-74
2022/12/13 04:45:32;;;;;;;;;;;;;;;16.50;60.26;97730.47;2085719;28;20037;-74
2022/12/13 04:46:33;;;;;;;1.27;1.17;;;;;;;16.54;60.19;97727.13;2087748;28;19935;-72
2022/12/13 04:47:35;;;;;;;1.10;1.00;;;;;;;16.59;60.02;97731.84;2091135;28;20048;-74
2022/12/13 04:48:36;;;;;;;0.60;0.60;;;;;;;16.60;60.00;97727.31;2090157;28;20260;-73
2022/12/13 04:49:37;;;;;;;;;;;;;;;16.52;60.20;97725.72;2090095;28;20115;-73
2022/12/13 04:50:39;;;;;;;1.67;1.10;;;;;;;16.56;60.03;97724.25;2087278;28;19924;-74
2022/12/13 04:51:41;;;;;;;1.50;1.15;;;;;;;16.59;60.04;97726.50;2087862;28;20048;-74
2022/12/13 04:52:43;;;;;;;0.82;0.70;;;;;;;16.65;59.90;97732.84;2087418;28;20214;-74
2022/12/13 04:53:45;;;;;;;0.70;0.70;;;;;;;16.66;59.75;97735.34;2086555;28;20988;-74
2022/12/13 04:54:46;;;;;;;1.10;0.63;;;;;;;16.72;59.75;97734.47;2087321;28;20048;-72
2022/12/13 04:55:47;;;;;;;;;;;;;;;16.70;59.92;97736.53;2083121;28;20041;-74
2022/12/13 04:56:48;;;;;;;;;;;;;;;16.64;60.20;97745.44;2085443;28;19974;-74
2022/12/13 04:57:49;;;;;;;0.98;0.85;;;;;;;16.71;60.05;97740.84;2085943;28;19928;-73
2022/12/13 04:58:50;;;;;;;1.45;0.75;;;;;;;16.80;59.82;97737.97;2083129;28;20056;-72
2022/12/13 04:59:52;;;;;;;;;;;;;;;16.75;60.09;97742.06;2088764;28;20056;-73
2022/12/13 05:00:53;;;;;;;1.40;1.30;;;;;;;16.81;60.18;97736.94;2081180;28;19932;-73
2022/12/13 05:01:54;;;;;;;;;;;;;;;16.76;60.22;97742.91;2092727;28;20753;-73
2022/12/13 05:02:56;;;;;;;0.75;0.75;;;;;;;16.84;60.20;97739.19;2092488;28;20009;-74
2022/12/13 05:03:57;;;;;;;0.98;0.77;;;;;;;16.92;59.90;97736.25;2094130;28;20040;-72
2022/12/13 05:04:59;;;;;;;;;;;;;;;16.90;60.18;97733.78;2093823;28;20055;-73
2022/12/13 05:06:05;;;;;;;1.38;1.00;;;;;;;16.97;59.98;97731.09;2091777;28;19928;-73
2022/12/13 05:07:07;;;;;;;1.65;1.17;;;;;;;17.04;59.78;97729.19;2086483;28;20052;-74
2022/12/13 05:08:07;;;;;;;1.55;0.88;;;;;;;17.13;59.65;97735.09;2084067;28;20184;-73
2022/12/13 05:09:09;;;;;;;;;;;;;;;17.08;59.81;97734.94;2082222;28;20102;-72
2022/12/13 05:10:11;;;;;;;1.00;0.70;;;;;;;17.12;59.71;97739.63;2087045;28;19932;-72
2022/12/13 05:11:12;;;;;;;1.35;0.68;;;;;;;17.16;59.84;97742.69;2084717;28;20178;-73
2022/12/13 05:12:14;;;;;;;;;;;;;;;17.12;59.82;97741.50;2081818;28;21028;-72
2022/12/13 05:13:16;;;;;;;;;;;;;;;17.11;59.98;97745.22;2094984;22;20000;-72